Dover, Idaho
Current Conditions -  °F | °C
As of 4:15 AM on Sunday 23 Nov 2014 (Local Time) from KSZT Reporting Station
Broken Clouds Broken Clouds  
Wind Chill: 26°   Ceiling: 1900
Heat Index: 32°   Visibility: 10mi
Dew Point: 32°   Wind: 6mph
Humidity: 100%   Direction: 190°S
Pressure: 30.09"   Gusts: NA
Location:  48.25°N, 116.61°W
Report Text: KSZT 231215Z AUTO 19005KT 10SM BKN019 BKN024 00/00 A3009 RMK AO2
Loading
Personal Weather Stations






























Interactive Weather Map New forecast layout! Learn more

10-Day Weather Forecast

Advertisements
Track Severe Weather on mobile